Time,TemperatureF,DewpointF,PressureIn,WindDirection,WindDirectionDegrees,WindSpeedMPH,WindSpeedGustMPH,Humidity,HourlyPrecipIn,Conditions,Clouds,dailyrainin,SolarRadiationWatts/m^2,SoftwareType,DateUTC
2013-10-02 00:03:00,62.4,59.0,29.90,SW,215,5.0,-999.0,89,-99.99,,,0.02,0,weatherlink.com 1.10,2013-10-02 05:03:00,
2013-10-02 00:18:00,61.8,59.0,29.90,SW,220,4.0,-999.0,90,-99.99,,,0.00,0,weatherlink.com 1.10,2013-10-02 05:18:00,
2013-10-02 00:33:00,62.9,60.0,29.90,SSW,212,6.0,-999.0,91,-99.99,,,0.00,0,weatherlink.com 1.10,2013-10-02 05:33:00,
2013-10-02 00:48:00,63.9,62.0,29.90,SW,223,6.0,-999.0,92,-99.99,,,0.00,0,weatherlink.com 1.10,2013-10-02 05:48:00,
2013-10-02 01:03:00,63.7,61.0,29.91,SW,227,6.0,-999.0,91,-99.99,,,0.00,0,weatherlink.com 1.10,2013-10-02 06:03:00,
2013-10-02 01:18:00,63.2,61.0,29.91,SW,224,4.0,-999.0,92,-99.99,,,0.00,0,weatherlink.com 1.10,2013-10-02 06:18:00,
2013-10-02 01:33:00,62.7,60.0,29.91,SW,224,5.0,-999.0,92,-99.99,,,0.00,0,weatherlink.com 1.10,2013-10-02 06:33:00,
2013-10-02 01:48:00,62.1,60.0,29.92,SW,214,4.0,-999.0,93,-99.99,,,0.00,0,weatherlink.com 1.10,2013-10-02 06:48:00,
2013-10-02 02:03:00,61.8,60.0,29.92,SSW,206,4.0,-999.0,93,-99.99,,,0.00,0,weatherlink.com 1.10,2013-10-02 07:03:00,
2013-10-02 02:18:00,61.5,60.0,29.92,SSW,210,3.0,-999.0,93,-99.99,,,0.00,0,weatherlink.com 1.10,2013-10-02 07:18:00,
2013-10-02 02:33:00,61.3,60.0,29.92,SSW,210,3.0,-999.0,94,-99.99,,,0.00,0,weatherlink.com 1.10,2013-10-02 07:33:00,
2013-10-02 02:48:00,61.2,60.0,29.92,SSW,210,1.0,-999.0,94,-99.99,,,0.00,0,weatherlink.com 1.10,2013-10-02 07:48:00,
2013-10-02 03:03:00,61.2,60.0,29.93,SSW,210,0.0,-999.0,95,-99.99,,,0.00,0,weatherlink.com 1.10,2013-10-02 08:03:00,
2013-10-02 03:18:00,61.0,60.0,29.93,SSW,210,0.0,-999.0,95,-99.99,,,0.00,0,weatherlink.com 1.10,2013-10-02 08:18:00,
2013-10-02 03:33:00,61.2,60.0,29.93,SSW,210,0.0,-999.0,95,-99.99,,,0.00,0,weatherlink.com 1.10,2013-10-02 08:33:00,
2013-10-02 03:48:00,60.7,59.0,29.93,SSW,210,0.0,-999.0,95,-99.99,,,0.00,0,weatherlink.com 1.10,2013-10-02 08:48:00,
2013-10-02 04:03:00,60.7,59.0,29.94,SSW,210,0.0,-999.0,95,-99.99,,,0.00,0,weatherlink.com 1.10,2013-10-02 09:03:00,
2013-10-02 04:18:00,60.1,59.0,29.94,SSW,210,0.0,-999.0,95,-99.99,,,0.00,0,weatherlink.com 1.10,2013-10-02 09:18:00,
2013-10-02 04:33:00,60.1,59.0,29.94,SSW,210,0.0,-999.0,95,-99.99,,,0.00,0,weatherlink.com 1.10,2013-10-02 09:33:00,
2013-10-02 04:48:00,60.4,59.0,29.94,SSW,210,0.0,-999.0,95,-99.99,,,0.00,0,weatherlink.com 1.10,2013-10-02 09:48:00,
2013-10-02 05:03:00,59.8,58.0,29.94,SSW,210,0.0,-999.0,95,-99.99,,,0.00,0,weatherlink.com 1.10,2013-10-02 10:03:00,
2013-10-02 05:18:00,60.1,59.0,29.95,SSW,210,0.0,-999.0,95,-99.99,,,0.00,0,weatherlink.com 1.10,2013-10-02 10:18:00,
2013-10-02 05:33:00,59.2,58.0,29.95,SSW,210,0.0,-999.0,95,-99.99,,,0.00,0,weatherlink.com 1.10,2013-10-02 10:33:00,
2013-10-02 05:48:00,58.9,58.0,29.96,SSW,210,0.0,-999.0,95,-99.99,,,0.00,0,weatherlink.com 1.10,2013-10-02 10:48:00,
2013-10-02 06:03:00,59.6,58.0,29.96,East,80,0.0,-999.0,95,-99.99,,,0.00,0,weatherlink.com 1.10,2013-10-02 11:03:00,
2013-10-02 06:18:00,59.8,58.0,29.96,ENE,65,1.0,-999.0,95,-99.99,,,0.00,0,weatherlink.com 1.10,2013-10-02 11:18:00,
2013-10-02 06:33:00,59.2,58.0,29.97,ENE,65,0.0,-999.0,94,-99.99,,,0.00,0,weatherlink.com 1.10,2013-10-02 11:33:00,
2013-10-02 06:48:00,58.1,56.0,29.97,ENE,65,0.0,-999.0,94,-99.99,,,0.00,0,weatherlink.com 1.10,2013-10-02 11:48:00,
2013-10-02 07:03:00,58.4,57.0,29.98,ENE,65,0.0,-999.0,95,-99.99,,,0.00,5,weatherlink.com 1.10,2013-10-02 12:03:00,
2013-10-02 07:19:00,58.1,56.0,29.98,ENE,65,0.0,-999.0,94,-99.99,,,0.00,21,weatherlink.com 1.10,2013-10-02 12:19:00,
2013-10-02 07:34:00,58.0,57.0,29.98,ENE,65,0.0,-999.0,95,-99.99,,,0.00,35,weatherlink.com 1.10,2013-10-02 12:34:00,
2013-10-02 07:49:00,58.7,57.0,29.99,ENE,65,0.0,-999.0,95,-99.99,,,0.00,74,weatherlink.com 1.10,2013-10-02 12:49:00,
2013-10-02 08:04:00,60.2,59.0,29.99,ENE,62,3.0,-999.0,95,-99.99,,,0.00,81,weatherlink.com 1.10,2013-10-02 13:04:00,
2013-10-02 08:19:00,61.3,60.0,30.00,ENE,61,2.0,-999.0,95,-99.99,,,0.00,197,weatherlink.com 1.10,2013-10-02 13:19:00,
2013-10-02 08:34:00,62.9,61.0,30.00,NE,51,3.0,-999.0,94,-99.99,,,0.00,271,weatherlink.com 1.10,2013-10-02 13:34:00,
2013-10-02 08:49:00,65.0,61.0,30.00,ENE,61,6.0,-999.0,86,-99.99,,,0.00,306,weatherlink.com 1.10,2013-10-02 13:49:00,
2013-10-02 09:04:00,66.0,59.0,30.00,NE,46,9.0,-999.0,77,-99.99,,,0.00,160,weatherlink.com 1.10,2013-10-02 14:04:00,
2013-10-02 09:19:00,67.3,58.0,30.00,NE,51,11.0,-999.0,73,-99.99,,,0.00,350,weatherlink.com 1.10,2013-10-02 14:19:00,
2013-10-02 09:34:00,69.6,57.0,30.00,NE,56,5.0,-999.0,65,-99.99,,,0.00,385,weatherlink.com 1.10,2013-10-02 14:34:00,
2013-10-02 09:49:00,71.1,57.0,29.99,East,87,9.0,-999.0,61,-99.99,,,0.00,420,weatherlink.com 1.10,2013-10-02 14:49:00,
2013-10-02 10:04:00,72.3,55.0,29.99,East,89,11.0,-999.0,55,-99.99,,,0.00,457,weatherlink.com 1.10,2013-10-02 15:04:00,
2013-10-02 10:19:00,73.5,54.0,29.99,East,97,11.0,-999.0,51,-99.99,,,0.00,487,weatherlink.com 1.10,2013-10-02 15:19:00,
2013-10-02 10:34:00,74.7,53.0,29.99,ENE,78,10.0,-999.0,47,-99.99,,,0.00,527,weatherlink.com 1.10,2013-10-02 15:34:00,
2013-10-02 10:49:00,75.8,52.0,29.98,East,81,8.0,-999.0,44,-99.99,,,0.00,554,weatherlink.com 1.10,2013-10-02 15:49:00,
2013-10-02 11:04:00,77.0,52.0,29.98,ENE,73,11.0,-999.0,42,-99.99,,,0.00,578,weatherlink.com 1.10,2013-10-02 16:04:00,
2013-10-02 11:19:00,77.4,54.0,29.98,NE,54,11.0,-999.0,44,-99.99,,,0.00,605,weatherlink.com 1.10,2013-10-02 16:19:00,
2013-10-02 11:34:00,78.3,53.0,29.98,East,82,5.0,-999.0,42,-99.99,,,0.00,578,weatherlink.com 1.10,2013-10-02 16:34:00,
2013-10-02 11:49:00,78.6,55.0,29.97,ENE,78,6.0,-999.0,45,-99.99,,,0.00,638,weatherlink.com 1.10,2013-10-02 16:49:00,
2013-10-02 12:20:00,80.5,57.0,29.96,East,96,4.0,-999.0,45,-99.99,,,0.00,659,weatherlink.com 1.10,2013-10-02 17:20:00,
2013-10-02 12:50:00,81.6,61.0,29.95,ENE,70,5.0,-999.0,49,-99.99,,,0.00,661,weatherlink.com 1.10,2013-10-02 17:50:00,
2013-10-02 13:05:00,81.8,61.0,29.94,SSE,149,6.0,-999.0,50,-99.99,,,0.00,661,weatherlink.com 1.10,2013-10-02 18:05:00,
2013-10-02 13:20:00,81.6,63.0,29.94,ESE,120,6.0,-999.0,53,-99.99,,,0.00,673,weatherlink.com 1.10,2013-10-02 18:20:00,
2013-10-02 13:35:00,81.6,63.0,29.93,SE,146,11.0,-999.0,54,-99.99,,,0.00,188,weatherlink.com 1.10,2013-10-02 18:35:00,
2013-10-02 13:50:00,80.9,64.0,29.93,SSE,148,7.0,-999.0,57,-99.99,,,0.00,262,weatherlink.com 1.10,2013-10-02 18:50:00,
2013-10-02 14:05:00,80.3,64.0,29.92,SSW,192,5.0,-999.0,58,-99.99,,,0.00,185,weatherlink.com 1.10,2013-10-02 19:05:00,
2013-10-02 14:20:00,81.2,64.0,29.91,East,86,8.0,-999.0,57,-99.99,,,0.00,236,weatherlink.com 1.10,2013-10-02 19:20:00,
2013-10-02 14:35:00,82.0,65.0,29.91,ESE,108,4.0,-999.0,56,-99.99,,,0.00,645,weatherlink.com 1.10,2013-10-02 19:35:00,
2013-10-02 14:50:00,82.4,65.0,29.91,SE,131,9.0,-999.0,55,-99.99,,,0.00,585,weatherlink.com 1.10,2013-10-02 19:50:00,
2013-10-02 15:05:00,82.8,63.0,29.91,SSE,151,6.0,-999.0,51,-99.99,,,0.00,475,weatherlink.com 1.10,2013-10-02 20:05:00,
2013-10-02 15:20:00,83.2,63.0,29.89,South,174,12.0,-999.0,50,-99.99,,,0.00,512,weatherlink.com 1.10,2013-10-02 20:20:00,
2013-10-02 15:35:00,83.0,61.0,29.89,SSW,194,0.0,-999.0,48,-99.99,,,0.00,128,weatherlink.com 1.10,2013-10-02 20:35:00,
2013-10-02 15:50:00,83.2,61.0,29.89,SE,140,12.0,-999.0,48,-99.99,,,0.00,417,weatherlink.com 1.10,2013-10-02 20:50:00,
2013-10-02 16:05:00,83.4,61.0,29.89,SE,129,9.0,-999.0,47,-99.99,,,0.00,483,weatherlink.com 1.10,2013-10-02 21:05:00,
2013-10-02 16:20:00,83.8,61.0,29.88,SSE,153,6.0,-999.0,46,-99.99,,,0.00,404,weatherlink.com 1.10,2013-10-02 21:20:00,
2013-10-02 16:35:00,83.0,61.0,29.88,SE,140,10.0,-999.0,48,-99.99,,,0.00,336,weatherlink.com 1.10,2013-10-02 21:35:00,
2013-10-02 16:50:00,82.6,60.0,29.87,East,99,4.0,-999.0,47,-99.99,,,0.00,267,weatherlink.com 1.10,2013-10-02 21:50:00,
2013-10-02 17:05:00,81.8,61.0,29.87,SE,137,4.0,-999.0,49,-99.99,,,0.00,207,weatherlink.com 1.10,2013-10-02 22:05:00,
2013-10-02 17:20:00,81.4,61.0,29.88,ESE,119,7.0,-999.0,51,-99.99,,,0.00,153,weatherlink.com 1.10,2013-10-02 22:20:00,
2013-10-02 17:35:00,80.7,62.0,29.88,SE,131,4.0,-999.0,53,-99.99,,,0.00,111,weatherlink.com 1.10,2013-10-02 22:35:00,
2013-10-02 17:50:00,79.9,62.0,29.88,SE,136,6.0,-999.0,54,-99.99,,,0.00,60,weatherlink.com 1.10,2013-10-02 22:50:00,
2013-10-02 18:05:00,78.8,62.0,29.88,SE,134,6.0,-999.0,56,-99.99,,,0.00,30,weatherlink.com 1.10,2013-10-02 23:05:00,
2013-10-02 18:20:00,77.7,62.0,29.88,SE,132,6.0,-999.0,58,-99.99,,,0.00,19,weatherlink.com 1.10,2013-10-02 23:20:00,
2013-10-02 18:35:00,76.8,62.0,29.89,SSE,148,5.0,-999.0,60,-99.99,,,0.00,9,weatherlink.com 1.10,2013-10-02 23:35:00,
2013-10-02 18:50:00,75.4,61.0,29.89,SE,144,3.0,-999.0,62,-99.99,,,0.00,0,weatherlink.com 1.10,2013-10-02 23:50:00,
2013-10-02 19:05:00,74.2,62.0,29.89,SE,146,3.0,-999.0,65,-99.99,,,0.00,0,weatherlink.com 1.10,2013-10-03 00:05:00,
2013-10-02 19:20:00,71.8,61.0,29.88,SE,138,6.0,-999.0,68,-99.99,,,0.00,0,weatherlink.com 1.10,2013-10-03 00:20:00,
2013-10-02 19:35:00,71.3,61.0,29.88,SE,144,4.0,-999.0,71,-99.99,,,0.00,0,weatherlink.com 1.10,2013-10-03 00:35:00,
2013-10-02 19:50:00,70.9,61.0,29.88,SSE,150,0.0,-999.0,72,-99.99,,,0.00,0,weatherlink.com 1.10,2013-10-03 00:50:00,
2013-10-02 20:05:00,70.3,62.0,29.87,SSE,157,0.0,-999.0,74,-99.99,,,0.00,0,weatherlink.com 1.10,2013-10-03 01:05:00,
2013-10-02 20:20:00,69.9,62.0,29.88,SSE,157,0.0,-999.0,76,-99.99,,,0.00,0,weatherlink.com 1.10,2013-10-03 01:20:00,
2013-10-02 20:35:00,69.1,62.0,29.88,SE,144,1.0,-999.0,77,-99.99,,,0.00,0,weatherlink.com 1.10,2013-10-03 01:35:00,
2013-10-02 20:50:00,68.3,62.0,29.88,SE,144,0.0,-999.0,79,-99.99,,,0.00,0,weatherlink.com 1.10,2013-10-03 01:50:00,
2013-10-02 21:05:00,66.9,61.0,29.87,SE,143,2.0,-999.0,80,-99.99,,,0.00,0,weatherlink.com 1.10,2013-10-03 02:05:00,
2013-10-02 21:20:00,66.3,61.0,29.87,SE,135,4.0,-999.0,84,-99.99,,,0.00,0,weatherlink.com 1.10,2013-10-03 02:20:00,
2013-10-02 21:35:00,66.6,61.0,29.87,SE,136,2.0,-999.0,83,-99.99,,,0.00,0,weatherlink.com 1.10,2013-10-03 02:35:00,
2013-10-02 21:50:00,66.4,61.0,29.88,SE,136,2.0,-999.0,83,-99.99,,,0.00,0,weatherlink.com 1.10,2013-10-03 02:50:00,
2013-10-02 22:05:00,66.4,61.0,29.88,SE,136,0.0,-999.0,83,-99.99,,,0.00,0,weatherlink.com 1.10,2013-10-03 03:05:00,
2013-10-02 22:20:00,65.8,61.0,29.87,ESE,107,4.0,-999.0,84,-99.99,,,0.00,0,weatherlink.com 1.10,2013-10-03 03:20:00,
2013-10-02 22:35:00,66.1,62.0,29.87,SE,137,6.0,-999.0,85,-99.99,,,0.00,0,weatherlink.com 1.10,2013-10-03 03:35:00,
2013-10-02 22:50:00,67.3,62.0,29.87,SE,134,5.0,-999.0,84,-99.99,,,0.00,0,weatherlink.com 1.10,2013-10-03 03:50:00,
2013-10-02 23:05:00,67.4,62.0,29.86,SE,135,3.0,-999.0,84,-99.99,,,0.00,0,weatherlink.com 1.10,2013-10-03 04:05:00,
2013-10-02 23:20:00,67.3,63.0,29.87,SE,126,1.0,-999.0,85,-99.99,,,0.00,0,weatherlink.com 1.10,2013-10-03 04:20:00,
2013-10-02 23:35:00,68.3,64.0,29.86,SSE,164,6.0,-999.0,87,-99.99,,,0.00,0,weatherlink.com 1.10,2013-10-03 04:35:00,
2013-10-02 23:50:00,70.3,65.0,29.86,SSE,153,6.0,-999.0,84,-99.99,,,0.00,0,weatherlink.com 1.10,2013-10-03 04:50:00,